Time;durP1;ratioP1;P1;durP2;ratioP2;P2;SDS_P1;SDS_P2;PMS_P1;PMS_P2;Temp;Humidity;BMP_temperature;BMP_pressure;BME280_temperature;BME280_humidity;BME280_pressure;Samples;Min_cycle;Max_cycle;Signal;HPM_P1;HPM_P2
2022/01/17 00:01:30;;;;;;;15.93;6.60;;;21.40;55.90;;;;;;4952030;29;20041;-72
2022/01/17 00:03:57;;;;;;;15.55;6.38;;;21.40;55.90;;;;;;4936138;29;20484;-72
2022/01/17 00:06:23;;;;;;;15.30;6.57;;;21.40;55.20;;;;;;4951143;28;20023;-72
2022/01/17 00:08:49;;;;;;;13.13;6.10;;;21.40;55.70;;;;;;4935511;29;20035;-72
2022/01/17 00:11:16;;;;;;;16.65;6.72;;;21.40;55.60;;;;;;4952780;29;20372;-72
2022/01/17 00:13:44;;;;;;;14.98;6.35;;;21.50;55.80;;;;;;4937095;29;20062;-72
2022/01/17 00:16:14;;;;;;;18.50;6.15;;;21.40;55.60;;;;;;4952985;28;20034;-72
2022/01/17 00:19:05;;;;;;;20.20;6.63;;;21.40;55.80;;;;;;4953975;28;20058;-72
2022/01/17 00:21:27;;;;;;;13.77;5.78;;;21.40;55.70;;;;;;4953300;29;20070;-72
2022/01/17 00:23:52;;;;;;;16.02;6.35;;;21.40;55.80;;;;;;4947050;28;20387;-72
2022/01/17 00:26:18;;;;;;;17.83;6.20;;;21.50;56.00;;;;;;4953673;28;20046;-72
2022/01/17 00:28:44;;;;;;;15.50;5.85;;;21.50;55.70;;;;;;4936432;29;20031;-71
2022/01/17 00:31:10;;;;;;;20.67;6.40;;;21.50;55.70;;;;;;4953108;29;20485;-72
2022/01/17 00:33:35;;;;;;;19.83;6.35;;;21.50;56.10;;;;;;4952831;29;20050;-71
2022/01/17 00:36:02;;;;;;;16.65;6.32;;;21.50;56.00;;;;;;4952504;28;20078;-72
2022/01/17 00:38:28;;;;;;;15.05;5.53;;;21.50;56.00;;;;;;4935793;29;20463;-72
2022/01/17 00:40:54;;;;;;;14.07;5.47;;;21.50;55.40;;;;;;4953496;28;20387;-71
2022/01/17 00:43:19;;;;;;;13.50;6.03;;;21.40;54.90;;;;;;4952538;29;20031;-71
2022/01/17 00:45:45;;;;;;;11.32;5.55;;;21.40;55.10;;;;;;4953210;28;20465;-72
2022/01/17 00:48:11;;;;;;;16.48;6.15;;;21.40;54.90;;;;;;4953123;28;20031;-72
2022/01/17 00:50:38;;;;;;;12.95;5.88;;;21.40;56.00;;;;;;4951970;29;20039;-72
2022/01/17 00:53:06;;;;;;;11.20;5.50;;;21.40;55.10;;;;;;4953523;28;20051;-72
2022/01/17 00:55:34;;;;;;;11.75;5.78;;;21.30;55.00;;;;;;4936281;29;20038;-72
2022/01/17 00:58:00;;;;;;;13.80;5.85;;;21.30;54.60;;;;;;4952203;29;20032;-71
2022/01/17 01:00:26;;;;;;;16.92;6.30;;;21.30;55.10;;;;;;4952884;28;20395;-71
2022/01/17 01:02:52;;;;;;;15.38;5.18;;;21.30;54.80;;;;;;4953157;29;20039;-72
2022/01/17 01:05:19;;;;;;;13.77;5.57;;;21.30;56.00;;;;;;4953469;28;20039;-72
2022/01/17 01:07:45;;;;;;;14.75;5.18;;;21.30;55.10;;;;;;4953156;28;20554;-71
2022/01/17 01:10:12;;;;;;;13.55;5.22;;;21.30;55.00;;;;;;4953101;29;20114;-72
2022/01/17 01:12:39;;;;;;;16.05;5.25;;;21.30;56.40;;;;;;4953377;28;20499;-72
2022/01/17 01:15:18;;;;;;;13.55;5.18;;;21.30;55.90;;;;;;4953248;28;20031;-71
2022/01/17 01:28:14;;;;;;;14.65;5.30;;;21.30;55.30;;;;;;4970873;23;20194;-69
2022/01/17 01:30:44;;;;;;;14.02;5.53;;;21.30;57.00;;;;;;4950604;28;20039;-68
2022/01/17 01:33:10;;;;;;;15.55;5.28;;;21.30;56.30;;;;;;4969610;28;20499;-68
2022/01/17 01:35:44;;;;;;;15.18;5.07;;;21.20;56.20;;;;;;4972051;28;20041;-68
2022/01/17 01:38:10;;;;;;;14.50;5.07;;;21.20;56.20;;;;;;4974925;28;20050;-68
2022/01/17 01:40:36;;;;;;;13.13;5.10;;;21.30;55.90;;;;;;4975728;28;20059;-68
2022/01/17 01:43:02;;;;;;;10.60;4.45;;;21.20;56.50;;;;;;4975852;28;20027;-68
2022/01/17 01:45:27;;;;;;;10.82;4.70;;;21.20;56.50;;;;;;4976029;28;20097;-68
2022/01/17 01:48:12;;;;;;;10.45;4.90;;;21.20;56.60;;;;;;4974673;28;20030;-68
2022/01/17 01:50:45;;;;;;;11.13;4.93;;;21.20;56.60;;;;;;4974099;28;20038;-69
2022/01/17 01:53:11;;;;;;;10.95;4.65;;;21.20;56.70;;;;;;4974636;28;20026;-69
2022/01/17 01:55:37;;;;;;;13.02;4.90;;;21.20;56.60;;;;;;4974667;28;20479;-69
2022/01/17 01:58:03;;;;;;;11.75;4.95;;;21.20;56.60;;;;;;4974580;28;20026;-69
2022/01/17 02:00:29;;;;;;;9.80;4.53;;;21.20;56.70;;;;;;4975417;28;20023;-69
2022/01/17 02:02:56;;;;;;;12.50;4.78;;;21.20;56.70;;;;;;4975716;28;20041;-69
2022/01/17 02:05:22;;;;;;;10.55;4.45;;;21.20;56.60;;;;;;4975605;28;20027;-69
2022/01/17 02:07:47;;;;;;;10.23;4.93;;;21.20;56.70;;;;;;4975191;28;20026;-68
2022/01/17 02:10:14;;;;;;;8.88;4.40;;;21.20;56.50;;;;;;4973776;28;20514;-69
2022/01/17 02:12:40;;;;;;;9.60;4.30;;;21.20;56.80;;;;;;4975382;28;20077;-69
2022/01/17 02:15:10;;;;;;;9.98;4.20;;;21.20;56.70;;;;;;4975360;28;20034;-69
2022/01/17 02:17:44;;;;;;;12.88;4.70;;;21.20;56.60;;;;;;4974372;28;20031;-69
2022/01/17 02:20:16;;;;;;;10.00;4.40;;;21.20;57.00;;;;;;4973752;28;20023;-69
2022/01/17 02:22:42;;;;;;;9.95;3.90;;;21.20;57.00;;;;;;4975227;28;20498;-68
2022/01/17 02:25:08;;;;;;;10.57;4.20;;;21.20;57.10;;;;;;4974925;28;20039;-68
2022/01/17 02:27:34;;;;;;;8.30;4.30;;;21.10;57.00;;;;;;4973998;28;20081;-69
2022/01/17 02:30:00;;;;;;;9.15;4.07;;;21.20;56.90;;;;;;4974755;28;20479;-68
2022/01/17 02:32:25;;;;;;;10.05;4.53;;;21.20;56.70;;;;;;4973988;28;20037;-69
2022/01/17 02:35:09;;;;;;;11.52;4.55;;;21.20;56.80;;;;;;4974049;28;20042;-68
2022/01/17 02:37:34;;;;;;;9.98;4.10;;;21.20;56.80;;;;;;4975023;28;20038;-69
2022/01/17 02:40:00;;;;;;;9.30;3.97;;;21.20;56.90;;;;;;4974367;28;20039;-69
2022/01/17 02:42:27;;;;;;;11.07;3.88;;;21.20;57.00;;;;;;4973492;28;20415;-69
2022/01/17 02:44:59;;;;;;;12.07;4.28;;;21.10;57.10;;;;;;4974904;28;20027;-69
2022/01/17 02:47:25;;;;;;;11.73;4.20;;;21.20;57.20;;;;;;4971800;28;20427;-68
2022/01/17 02:49:50;;;;;;;9.68;3.90;;;21.20;56.90;;;;;;4956981;28;20031;-69
2022/01/17 02:52:19;;;;;;;10.00;4.10;;;21.20;57.00;;;;;;4954292;29;20091;-68
2022/01/17 02:54:45;;;;;;;9.77;3.90;;;21.20;57.00;;;;;;4955363;28;20027;-69
2022/01/17 02:57:11;;;;;;;9.48;4.07;;;21.10;57.00;;;;;;4957114;28;20026;-68
2022/01/17 02:59:37;;;;;;;11.85;4.13;;;21.10;56.80;;;;;;4974343;28;20113;-69
2022/01/17 03:02:04;;;;;;;8.68;3.97;;;21.20;56.90;;;;;;4957377;28;20070;-69
2022/01/17 03:04:32;;;;;;;8.48;3.85;;;21.10;56.70;;;;;;4974467;28;20035;-69
2022/01/17 03:06:59;;;;;;;7.50;3.70;;;21.10;57.00;;;;;;4974936;28;20105;-68
2022/01/17 03:09:27;;;;;;;16.27;4.20;;;21.10;56.80;;;;;;4972775;28;20042;-69
2022/01/17 03:11:53;;;;;;;10.57;3.85;;;21.10;57.00;;;;;;4974249;28;20493;-69
2022/01/17 03:14:18;;;;;;;10.38;4.00;;;21.10;56.70;;;;;;4972923;28;20166;-69
2022/01/17 03:16:47;;;;;;;9.63;4.07;;;21.10;56.70;;;;;;4974098;28;20050;-68
2022/01/17 03:19:13;;;;;;;7.68;3.70;;;21.10;56.90;;;;;;4973367;28;20031;-69
2022/01/17 03:21:38;;;;;;;8.55;3.50;;;21.10;56.90;;;;;;4974059;28;20037;-68
2022/01/17 03:24:06;;;;;;;8.68;3.83;;;21.10;57.00;;;;;;4974121;28;20058;-69
2022/01/17 03:26:32;;;;;;;9.23;3.88;;;21.10;57.10;;;;;;4973962;28;20031;-69
2022/01/17 03:29:00;;;;;;;11.43;3.90;;;21.10;57.10;;;;;;4974099;28;20494;-69
2022/01/17 03:31:26;;;;;;;7.72;3.58;;;21.10;56.80;;;;;;4971863;28;20027;-69
2022/01/17 03:33:52;;;;;;;8.63;3.70;;;21.10;57.70;;;;;;4974013;28;20026;-69
2022/01/17 03:36:18;;;;;;;8.68;3.42;;;21.10;57.20;;;;;;4973825;28;20019;-69
2022/01/17 03:38:44;;;;;;;7.55;3.70;;;21.10;57.10;;;;;;4973980;28;20081;-69
2022/01/17 03:41:12;;;;;;;7.20;3.42;;;21.10;57.00;;;;;;4973142;28;20026;-69
2022/01/17 03:43:39;;;;;;;6.45;3.10;;;21.10;56.80;;;;;;4972865;28;20043;-69
2022/01/17 03:46:04;;;;;;;6.65;3.15;;;21.10;56.30;;;;;;4974138;28;20069;-69
2022/01/17 03:48:31;;;;;;;7.95;3.42;;;21.10;57.10;;;;;;4973415;28;20480;-69
2022/01/17 03:50:59;;;;;;;7.32;3.35;;;21.10;56.60;;;;;;4973349;28;20069;-69
2022/01/17 03:53:25;;;;;;;7.97;3.72;;;21.10;57.20;;;;;;4972611;28;20041;-69
2022/01/17 03:55:52;;;;;;;8.50;3.35;;;21.10;56.80;;;;;;4956165;28;20488;-68
2022/01/17 03:58:19;;;;;;;6.88;3.22;;;21.10;57.20;;;;;;4973451;28;20468;-68
2022/01/17 04:00:47;;;;;;;8.25;3.45;;;21.10;56.20;;;;;;4972538;28;20411;-68
2022/01/17 04:03:13;;;;;;;7.53;3.25;;;21.10;55.90;;;;;;4973506;28;20111;-69
2022/01/17 04:05:39;;;;;;;6.68;3.20;;;21.10;56.50;;;;;;4973133;28;20106;-69
2022/01/17 04:08:06;;;;;;;5.85;3.15;;;21.10;56.30;;;;;;4973273;28;20026;-68
2022/01/17 04:10:33;;;;;;;7.07;3.47;;;21.10;56.30;;;;;;4972993;28;20070;-68
2022/01/17 04:13:03;;;;;;;9.35;3.65;;;21.10;56.40;;;;;;4973211;28;20399;-68
2022/01/17 04:15:33;;;;;;;8.43;3.53;;;21.10;55.80;;;;;;4973271;28;20525;-69
2022/01/17 04:17:59;;;;;;;7.70;3.42;;;21.10;56.10;;;;;;4955829;28;20027;-69
2022/01/17 04:20:29;;;;;;;8.27;3.70;;;21.10;56.20;;;;;;4972021;28;20414;-69
2022/01/17 04:22:57;;;;;;;10.52;3.40;;;21.10;56.20;;;;;;4971867;28;20041;-69
2022/01/17 04:25:25;;;;;;;8.57;3.10;;;21.10;56.20;;;;;;4973122;28;20043;-70
2022/01/17 04:27:52;;;;;;;6.68;3.08;;;21.10;56.00;;;;;;4971699;28;20037;-69
2022/01/17 04:30:19;;;;;;;6.57;3.10;;;21.10;56.00;;;;;;4972698;28;20030;-69
2022/01/17 04:32:45;;;;;;;6.20;3.22;;;21.10;56.00;;;;;;4971940;28;20121;-69
2022/01/17 04:35:14;;;;;;;10.57;3.55;;;21.00;56.00;;;;;;4971781;28;20089;-70
2022/01/17 04:37:41;;;;;;;5.57;2.80;;;21.10;56.00;;;;;;4971463;28;20037;-69
2022/01/17 04:40:07;;;;;;;8.43;3.50;;;21.00;57.10;;;;;;4972530;28;20030;-69
2022/01/17 04:42:34;;;;;;;8.38;3.38;;;21.10;56.20;;;;;;4972043;28;20031;-69
2022/01/17 04:45:11;;;;;;;8.75;3.33;;;21.00;56.00;;;;;;4972977;28;20038;-70
2022/01/17 04:47:39;;;;;;;7.43;3.25;;;21.00;56.00;;;;;;4971772;28;20031;-69
2022/01/17 04:50:11;;;;;;;6.93;2.60;;;21.00;55.90;;;;;;4972521;28;20529;-68
2022/01/17 04:52:37;;;;;;;6.40;2.70;;;21.00;56.20;;;;;;4955954;28;20030;-68
2022/01/17 04:55:05;;;;;;;6.53;3.20;;;21.10;56.10;;;;;;4971225;28;20051;-68
2022/01/17 04:57:31;;;;;;;7.28;2.90;;;21.10;56.00;;;;;;4971599;28;20023;-68
2022/01/17 04:59:57;;;;;;;7.35;3.55;;;21.10;55.70;;;;;;4972437;28;20112;-68
2022/01/17 05:02:22;;;;;;;8.45;3.10;;;21.10;55.90;;;;;;4972665;28;20034;-68
2022/01/17 05:04:48;;;;;;;8.90;2.97;;;21.10;55.80;;;;;;4971883;28;20208;-69
2022/01/17 05:07:14;;;;;;;9.07;3.15;;;21.00;56.40;;;;;;4971423;28;20113;-69
2022/01/17 05:09:42;;;;;;;6.95;3.13;;;21.10;56.30;;;;;;4972314;28;20085;-69
2022/01/17 05:12:10;;;;;;;8.10;3.05;;;21.10;56.30;;;;;;4975633;28;20102;-69
2022/01/17 05:14:39;;;;;;;6.65;3.03;;;21.10;56.70;;;;;;4943487;28;20093;-69
2022/01/17 05:17:22;;;;;;;7.20;3.15;;;21.10;56.50;;;;;;4975226;28;20034;-69
2022/01/17 05:19:54;;;;;;;5.63;2.80;;;21.10;56.40;;;;;;4974845;28;20486;-69
2022/01/17 05:22:21;;;;;;;8.80;3.35;;;21.10;56.40;;;;;;4975480;28;20034;-69
2022/01/17 05:24:47;;;;;;;7.38;3.13;;;21.10;57.00;;;;;;4976368;28;20114;-69
2022/01/17 05:27:14;;;;;;;7.93;3.50;;;21.10;56.10;;;;;;4975760;28;20037;-68
2022/01/17 05:29:40;;;;;;;8.38;2.88;;;21.00;55.80;;;;;;4959071;28;20491;-69
2022/01/17 05:32:06;;;;;;;6.40;3.22;;;21.00;56.00;;;;;;4976177;28;20034;-69
2022/01/17 05:34:40;;;;;;;6.82;2.92;;;21.10;56.40;;;;;;4976191;28;20037;-69
2022/01/17 05:37:07;;;;;;;5.68;2.80;;;21.10;56.30;;;;;;4974898;28;20023;-69
2022/01/17 05:39:33;;;;;;;7.90;3.25;;;21.00;55.60;;;;;;4975705;28;20019;-69
2022/01/17 05:41:59;;;;;;;5.53;2.88;;;21.00;55.90;;;;;;4975874;28;20472;-69
2022/01/17 05:44:25;;;;;;;6.97;2.92;;;21.10;55.70;;;;;;4974772;28;20035;-69
2022/01/17 05:46:50;;;;;;;6.57;3.08;;;21.10;55.60;;;;;;4975896;28;20099;-69
2022/01/17 05:49:16;;;;;;;5.95;2.88;;;21.10;55.60;;;;;;4975815;28;20463;-69
2022/01/17 05:51:42;;;;;;;5.78;2.85;;;21.00;55.40;;;;;;4974586;28;20026;-69
2022/01/17 05:54:08;;;;;;;5.80;2.78;;;21.00;55.40;;;;;;4974531;28;20023;-69
2022/01/17 05:56:34;;;;;;;7.40;3.10;;;21.00;55.50;;;;;;4975487;28;20027;-69
2022/01/17 05:59:00;;;;;;;5.45;2.90;;;21.00;56.80;;;;;;4974633;28;20027;-70
2022/01/17 06:01:25;;;;;;;7.07;2.60;;;21.10;55.50;;;;;;4974127;28;20034;-69
2022/01/17 06:03:51;;;;;;;7.70;2.70;;;21.00;55.60;;;;;;4975703;28;20035;-70
2022/01/17 06:06:17;;;;;;;6.20;3.00;;;21.10;55.60;;;;;;4975552;28;20113;-69
2022/01/17 06:08:42;;;;;;;7.80;3.08;;;21.00;55.50;;;;;;4974513;28;20046;-70
2022/01/17 06:11:08;;;;;;;13.13;3.00;;;21.00;55.60;;;;;;4957437;28;20035;-69
2022/01/17 06:13:34;;;;;;;7.25;3.10;;;21.00;55.40;;;;;;4975462;28;20062;-69
2022/01/17 06:16:00;;;;;;;7.60;2.75;;;21.10;55.80;;;;;;4958376;28;20037;-70
2022/01/17 06:18:26;;;;;;;5.07;2.70;;;21.00;55.30;;;;;;4972351;28;20031;-69
2022/01/17 06:20:52;;;;;;;5.35;2.50;;;21.00;55.50;;;;;;4953835;29;20031;-69
2022/01/17 06:23:18;;;;;;;6.20;2.90;;;21.10;56.30;;;;;;4954660;28;20031;-69
2022/01/17 06:25:43;;;;;;;7.00;2.80;;;21.00;55.80;;;;;;4962614;28;20031;-69
2022/01/17 06:28:09;;;;;;;6.45;3.15;;;21.00;55.40;;;;;;4959114;28;20085;-69
2022/01/17 06:30:35;;;;;;;6.32;2.92;;;21.00;55.50;;;;;;4974736;28;20029;-69
2022/01/17 06:33:03;;;;;;;6.85;2.83;;;21.00;56.30;;;;;;4975013;28;20369;-69
2022/01/17 06:35:30;;;;;;;6.38;2.97;;;21.00;55.70;;;;;;4975061;28;20035;-69
2022/01/17 06:37:55;;;;;;;4.82;2.65;;;21.00;55.60;;;;;;4974596;28;20402;-69
2022/01/17 06:40:21;;;;;;;8.10;2.50;;;21.00;55.40;;;;;;4973151;28;20034;-69
2022/01/17 06:42:47;;;;;;;6.18;2.72;;;21.00;55.20;;;;;;4974800;28;20023;-70
2022/01/17 06:45:15;;;;;;;5.65;2.55;;;21.00;55.40;;;;;;4957401;28;20109;-69
2022/01/17 06:47:41;;;;;;;6.43;2.63;;;21.00;55.40;;;;;;4973527;28;20038;-69
2022/01/17 06:50:08;;;;;;;6.50;2.53;;;21.00;55.70;;;;;;4973219;28;20126;-70
2022/01/17 06:52:34;;;;;;;5.53;2.50;;;21.00;55.40;;;;;;4974513;28;20034;-69
2022/01/17 06:55:00;;;;;;;5.65;2.80;;;21.00;55.30;;;;;;4973420;28;20391;-69
2022/01/17 06:57:26;;;;;;;6.78;3.00;;;21.00;55.30;;;;;;4973439;28;20023;-70
2022/01/17 06:59:52;;;;;;;6.65;2.63;;;21.00;55.50;;;;;;4974144;28;20034;-69
2022/01/17 07:02:18;;;;;;;5.15;2.60;;;21.00;55.60;;;;;;4973550;28;20474;-69
2022/01/17 07:04:44;;;;;;;6.35;2.95;;;21.00;55.10;;;;;;4973167;28;20431;-69
2022/01/17 07:07:10;;;;;;;5.97;2.60;;;21.00;56.00;;;;;;4974151;28;20053;-70
2022/01/17 07:09:36;;;;;;;7.75;3.13;;;21.00;55.80;;;;;;4973966;28;20023;-69
2022/01/17 07:12:03;;;;;;;7.20;3.00;;;21.00;56.30;;;;;;4974670;28;20027;-69
2022/01/17 07:14:29;;;;;;;6.13;2.70;;;21.00;56.10;;;;;;4974363;28;20435;-69
2022/01/17 07:16:56;;;;;;;5.22;2.45;;;21.00;55.50;;;;;;4974206;28;20033;-69
2022/01/17 07:19:23;;;;;;;5.07;2.47;;;21.00;55.70;;;;;;4974073;28;20479;-70
2022/01/17 07:21:49;;;;;;;6.38;2.55;;;21.00;55.70;;;;;;4953394;29;20035;-69
2022/01/17 07:24:15;;;;;;;7.70;2.83;;;21.00;55.50;;;;;;4954815;28;20045;-71
2022/01/17 07:26:41;;;;;;;6.35;2.67;;;21.00;55.40;;;;;;4969475;28;20110;-69
2022/01/17 07:29:08;;;;;;;6.47;2.47;;;21.00;54.60;;;;;;4970147;28;20039;-70
2022/01/17 07:31:37;;;;;;;7.18;2.53;;;21.00;53.40;;;;;;4976500;28;20027;-69
2022/01/17 07:34:04;;;;;;;5.95;2.47;;;21.00;53.40;;;;;;4974038;28;20042;-69
2022/01/17 07:36:31;;;;;;;6.18;2.45;;;21.00;53.60;;;;;;4973808;28;20057;-70
2022/01/17 07:38:58;;;;;;;7.45;2.88;;;21.00;53.80;;;;;;4973891;28;20026;-69
2022/01/17 07:41:24;;;;;;;7.57;2.70;;;21.00;53.80;;;;;;4972258;28;20113;-69
2022/01/17 07:43:52;;;;;;;10.82;3.03;;;21.00;53.80;;;;;;4956168;28;20065;-69
2022/01/17 07:46:23;;;;;;;10.45;3.22;;;21.00;53.80;;;;;;4973761;28;20035;-69
2022/01/17 07:49:03;;;;;;;8.25;3.35;;;21.00;53.90;;;;;;4973719;28;20026;-69
2022/01/17 07:51:30;;;;;;;11.43;3.10;;;20.90;53.80;;;;;;4952621;29;20031;-69
2022/01/17 07:53:58;;;;;;;9.93;3.38;;;20.90;53.70;;;;;;4969291;28;20058;-68
2022/01/17 07:56:24;;;;;;;8.02;3.13;;;20.90;53.80;;;;;;4953154;28;20043;-69
2022/01/17 07:58:50;;;;;;;6.35;2.92;;;20.90;53.70;;;;;;4969151;28;20031;-69
2022/01/17 08:01:16;;;;;;;6.25;2.63;;;20.90;53.80;;;;;;4961553;28;20106;-69
2022/01/17 08:03:42;;;;;;;6.00;2.70;;;20.90;53.80;;;;;;4973407;28;20037;-69
2022/01/17 08:06:08;;;;;;;6.57;2.80;;;20.90;53.80;;;;;;4973440;28;20030;-69
2022/01/17 08:08:34;;;;;;;8.48;3.63;;;20.90;53.80;;;;;;4973211;28;20053;-69
2022/01/17 08:11:00;;;;;;;7.65;3.78;;;20.90;53.70;;;;;;4972563;28;20034;-69
2022/01/17 08:13:26;;;;;;;7.93;3.22;;;20.90;53.60;;;;;;4973411;28;20027;-69
2022/01/17 08:15:52;;;;;;;8.27;3.72;;;21.00;53.80;;;;;;4972083;28;20027;-69
2022/01/17 08:18:18;;;;;;;7.05;3.20;;;20.90;53.60;;;;;;4972031;28;20490;-71
2022/01/17 08:20:43;;;;;;;8.40;3.35;;;20.90;53.60;;;;;;4971415;28;20514;-70
2022/01/17 08:23:10;;;;;;;6.97;3.13;;;20.90;53.60;;;;;;4973178;28;20033;-70
2022/01/17 08:25:37;;;;;;;9.00;3.50;;;20.90;53.60;;;;;;4973008;28;20058;-69
2022/01/17 08:28:03;;;;;;;10.13;3.40;;;20.90;53.50;;;;;;4973001;28;20098;-70
2022/01/17 08:30:30;;;;;;;6.78;3.25;;;20.90;53.50;;;;;;4972393;28;20037;-69
2022/01/17 08:32:56;;;;;;;6.80;3.10;;;20.90;53.50;;;;;;4973189;28;20037;-69
2022/01/17 08:35:22;;;;;;;7.53;3.28;;;20.90;53.50;;;;;;4971702;28;20031;-69
2022/01/17 08:37:47;;;;;;;7.88;3.15;;;20.90;53.50;;;;;;4973200;28;20018;-69
2022/01/17 08:40:15;;;;;;;8.88;3.17;;;20.90;54.10;;;;;;4972348;28;20031;-69
2022/01/17 08:42:41;;;;;;;9.18;3.65;;;20.90;53.40;;;;;;4972974;28;20062;-69
2022/01/17 08:45:12;;;;;;;9.27;3.25;;;20.90;53.30;;;;;;4972493;28;20062;-69
2022/01/17 08:47:38;;;;;;;9.25;2.70;;;20.90;53.40;;;;;;4972933;28;20054;-69
2022/01/17 08:50:05;;;;;;;5.95;2.97;;;21.00;53.40;;;;;;4972317;28;20436;-69
2022/01/17 08:52:31;;;;;;;6.70;3.22;;;21.00;53.30;;;;;;4973222;28;20037;-69
2022/01/17 08:54:57;;;;;;;7.00;2.80;;;21.00;53.40;;;;;;4972911;28;20031;-69
2022/01/17 08:57:24;;;;;;;8.40;3.28;;;20.90;53.30;;;;;;4972772;28;20027;-69
2022/01/17 08:59:50;;;;;;;6.35;3.08;;;20.90;53.20;;;;;;4972178;28;20023;-69
2022/01/17 09:02:16;;;;;;;7.60;3.00;;;21.00;53.30;;;;;;4971515;28;20035;-69
2022/01/17 09:04:42;;;;;;;6.80;2.85;;;21.00;53.30;;;;;;4971594;28;20027;-69
2022/01/17 09:07:14;;;;;;;8.45;3.10;;;21.00;53.40;;;;;;4971592;28;20045;-68
2022/01/17 09:09:42;;;;;;;4.93;2.67;;;21.00;53.30;;;;;;4972136;28;20030;-68
2022/01/17 09:12:10;;;;;;;7.38;2.92;;;20.90;53.20;;;;;;4972813;28;20022;-69
2022/01/17 09:14:37;;;;;;;6.38;2.75;;;20.90;53.80;;;;;;4972750;28;20067;-69
2022/01/17 09:17:06;;;;;;;7.40;3.00;;;20.90;53.20;;;;;;4971961;28;20162;-69
2022/01/17 09:19:33;;;;;;;6.40;3.03;;;20.90;53.20;;;;;;4971994;28;20050;-69
2022/01/17 09:22:02;;;;;;;6.20;3.00;;;20.90;53.10;;;;;;4972641;28;20106;-68
2022/01/17 09:24:31;;;;;;;7.60;2.85;;;20.90;53.20;;;;;;4971228;28;20488;-68
2022/01/17 09:26:58;;;;;;;5.72;2.55;;;20.90;53.10;;;;;;4972529;28;20034;-69
2022/01/17 09:29:25;;;;;;;5.25;2.60;;;20.90;53.10;;;;;;4972064;28;20502;-68
2022/01/17 09:31:52;;;;;;;6.63;3.17;;;20.90;53.10;;;;;;4972161;28;20038;-69
2022/01/17 09:34:18;;;;;;;6.13;2.58;;;20.90;53.10;;;;;;4972589;28;20026;-69
2022/01/17 09:36:45;;;;;;;6.63;3.10;;;20.90;53.00;;;;;;4955227;28;20084;-68
2022/01/17 09:39:12;;;;;;;4.82;2.50;;;20.90;53.20;;;;;;4971117;28;20033;-68
2022/01/17 09:41:38;;;;;;;5.35;2.53;;;20.90;53.20;;;;;;4951708;29;20065;-68
2022/01/17 09:44:11;;;;;;;5.93;2.42;;;20.90;53.00;;;;;;4953221;28;20110;-69
2022/01/17 09:46:42;;;;;;;6.07;2.60;;;20.90;53.10;;;;;;4951965;28;20043;-68
2022/01/17 09:54:27;;;;;;;6.07;2.80;;;20.90;53.10;;;;;;4953616;28;20037;-68
2022/01/17 09:56:57;;;;;;;7.43;2.75;;;20.90;53.00;;;;;;4935760;29;20031;-68
2022/01/17 09:59:23;;;;;;;5.40;2.72;;;20.90;53.00;;;;;;4970553;28;20034;-69
2022/01/17 10:01:49;;;;;;;5.68;2.80;;;20.90;52.90;;;;;;4974312;28;20479;-69
2022/01/17 10:04:17;;;;;;;5.57;2.80;;;20.90;53.10;;;;;;4975629;28;20065;-68
2022/01/17 10:06:50;;;;;;;4.13;2.50;;;20.90;53.00;;;;;;4975457;28;20065;-68
2022/01/17 10:09:21;;;;;;;3.72;2.42;;;20.90;53.00;;;;;;4973884;28;20050;-69
2022/01/17 10:12:15;;;;;;;5.53;2.63;;;20.90;53.10;;;;;;4975382;28;20034;-69
2022/01/17 10:14:58;;;;;;;6.03;2.88;;;21.00;53.10;;;;;;4974765;28;20030;-72
2022/01/17 10:17:40;;;;;;;11.38;2.58;;;20.90;52.80;;;;;;4973801;28;20488;-69
2022/01/17 10:20:08;;;;;;;14.68;2.28;;;20.80;51.20;;;;;;4955999;29;20392;-70
2022/01/17 10:22:44;;;;;;;9.50;2.30;;;20.60;50.00;;;;;;4972593;28;20033;-69
2022/01/17 10:28:08;;;;;;;6.78;2.28;;;20.60;51.30;;;;;;4974912;28;20039;-69
2022/01/17 10:30:51;;;;;;;7.85;2.65;;;20.70;51.80;;;;;;4974475;28;20089;-69
2022/01/17 10:36:18;;;;;;;14.65;3.13;;;20.80;52.60;;;;;;4918297;29;20028;-69
2022/01/17 10:38:44;;;;;;;12.15;3.25;;;20.80;53.70;;;;;;4966518;28;20034;-68
2022/01/17 10:41:10;;;;;;;10.07;2.83;;;20.90;55.50;;;;;;4954715;28;20106;-68
2022/01/17 10:43:39;;;;;;;8.23;2.50;;;20.90;55.50;;;;;;4960033;28;20482;-69
2022/01/17 10:46:08;;;;;;;14.40;2.80;;;20.90;56.80;;;;;;4969008;28;20111;-68
2022/01/17 10:48:38;;;;;;;10.30;2.83;;;21.00;56.30;;;;;;4974689;28;20026;-69
2022/01/17 10:51:06;;;;;;;13.75;3.10;;;21.00;58.00;;;;;;4974249;28;20119;-69
2022/01/17 10:53:32;;;;;;;11.93;2.90;;;21.00;57.20;;;;;;4974262;28;20081;-69
2022/01/17 10:56:05;;;;;;;16.70;3.35;;;21.00;58.20;;;;;;4974203;28;20026;-68
2022/01/17 10:58:32;;;;;;;14.68;3.20;;;21.00;58.20;;;;;;4974401;28;20121;-69
2022/01/17 11:01:05;;;;;;;13.30;3.40;;;21.00;58.80;;;;;;4974216;28;20515;-68
2022/01/17 11:03:33;;;;;;;9.98;3.10;;;21.20;58.90;;;;;;4971309;28;20129;-68
2022/01/17 11:06:05;;;;;;;9.90;3.13;;;21.10;58.80;;;;;;4973026;28;20033;-69
2022/01/17 11:08:35;;;;;;;14.75;3.50;;;21.10;58.80;;;;;;4970842;28;20126;-68
2022/01/17 11:11:05;;;;;;;13.48;3.75;;;21.10;59.40;;;;;;4973945;28;20034;-68
2022/01/17 11:13:32;;;;;;;;;;;21.10;59.20;;;;;;4974767;28;20026;-68
2022/01/17 11:16:01;;;;;;;12.15;3.53;;;21.10;59.60;;;;;;4973360;28;20446;-68
2022/01/17 11:18:29;;;;;;;12.27;3.30;;;21.10;60.00;;;;;;4974084;28;20022;-69
2022/01/17 11:21:06;;;;;;;18.90;3.40;;;21.20;60.10;;;;;;4971619;28;20034;-69
2022/01/17 11:23:32;;;;;;;13.85;3.17;;;21.10;60.20;;;;;;4974082;28;20554;-69
2022/01/17 11:25:58;;;;;;;10.13;3.10;;;21.10;60.50;;;;;;4972919;28;20043;-69
2022/01/17 11:28:32;;;;;;;20.92;3.35;;;21.20;60.50;;;;;;4973618;28;20038;-69
2022/01/17 11:31:00;;;;;;;12.88;2.97;;;21.10;60.50;;;;;;4972037;28;20431;-69
2022/01/17 11:33:27;;;;;;;11.38;3.00;;;21.10;61.00;;;;;;4954054;28;20050;-69
2022/01/17 11:35:54;;;;;;;10.60;3.13;;;21.20;61.10;;;;;;4970412;28;20026;-69
2022/01/17 11:38:29;;;;;;;9.85;2.90;;;21.10;60.60;;;;;;4970539;28;20062;-69
2022/01/17 11:40:56;;;;;;;8.88;3.30;;;21.10;61.00;;;;;;4970177;28;20150;-69
2022/01/17 11:43:35;;;;;;;17.55;3.80;;;21.10;60.90;;;;;;4972118;28;20042;-69
2022/01/17 11:46:29;;;;;;;12.77;4.00;;;21.20;61.00;;;;;;4954319;28;20081;-69
2022/01/17 11:49:06;;;;;;;14.07;3.67;;;21.20;60.70;;;;;;4965624;28;20289;-69
2022/01/17 11:51:46;;;;;;;12.50;4.32;;;21.20;60.60;;;;;;4970962;28;20554;-69
2022/01/17 11:54:23;;;;;;;14.30;4.75;;;21.20;60.30;;;;;;4972473;28;20580;-69
2022/01/17 11:56:58;;;;;;;12.32;4.53;;;21.20;60.40;;;;;;4956033;28;20023;-69
2022/01/17 11:59:39;;;;;;;10.77;3.75;;;21.30;60.60;;;;;;4972097;28;20501;-69
2022/01/17 12:02:26;;;;;;;10.82;3.80;;;21.30;60.70;;;;;;4968173;28;20030;-69
2022/01/17 12:05:07;;;;;;;12.45;4.20;;;21.30;60.90;;;;;;4972982;28;20031;-69
2022/01/17 12:07:50;;;;;;;10.00;3.78;;;21.40;61.00;;;;;;4972876;28;20057;-69
2022/01/17 12:10:19;;;;;;;11.27;3.75;;;21.40;60.70;;;;;;4972837;28;20041;-69
2022/01/17 12:13:15;;;;;;;12.47;3.40;;;21.30;59.60;;;;;;4972926;28;20037;-69
2022/01/17 12:16:06;;;;;;;13.80;3.50;;;21.20;58.50;;;;;;4953979;29;20026;-69
2022/01/17 12:18:35;;;;;;;10.80;3.72;;;21.10;56.20;;;;;;4953652;28;20440;-68
2022/01/17 12:21:20;;;;;;;10.70;3.42;;;21.00;56.90;;;;;;4952892;28;20039;-69
2022/01/17 12:23:47;;;;;;;12.18;3.40;;;21.10;57.90;;;;;;4976837;28;20034;-69
2022/01/17 12:26:27;;;;;;;12.48;3.13;;;21.10;56.80;;;;;;4950275;29;20038;-69
2022/01/17 12:28:54;;;;;;;;;;;21.10;55.70;;;;;;4953970;29;20058;-69
2022/01/17 12:31:40;;;;;;;8.60;3.00;;;21.20;55.30;;;;;;4952184;29;20358;-69
2022/01/17 12:34:27;;;;;;;10.88;2.80;;;21.20;55.30;;;;;;4958987;28;20088;-69
2022/01/17 12:36:55;;;;;;;9.88;2.90;;;21.30;55.70;;;;;;4969095;28;20041;-69
2022/01/17 12:39:23;;;;;;;10.02;2.97;;;21.30;55.80;;;;;;4954267;28;20078;-69
2022/01/17 12:41:52;;;;;;;11.73;3.40;;;21.40;56.60;;;;;;4951293;28;20039;-69
2022/01/17 12:44:25;;;;;;;12.27;3.17;;;21.40;56.50;;;;;;4965081;28;20038;-69
2022/01/17 12:46:54;;;;;;;7.70;2.80;;;21.50;57.00;;;;;;4970648;28;20372;-69
2022/01/17 12:49:21;;;;;;;11.23;2.88;;;21.50;57.00;;;;;;4953786;28;20062;-69
2022/01/17 12:51:49;;;;;;;11.68;2.90;;;21.50;57.10;;;;;;4951550;28;20036;-69
2022/01/17 12:54:21;;;;;;;9.88;3.42;;;21.50;57.40;;;;;;4964032;28;20547;-68
2022/01/17 12:56:49;;;;;;;10.90;3.65;;;21.40;57.60;;;;;;4950376;28;20035;-69
2022/01/17 12:59:17;;;;;;;8.93;3.00;;;21.50;57.80;;;;;;4960535;28;20022;-69
2022/01/17 13:01:50;;;;;;;12.15;3.45;;;21.50;58.00;;;;;;4971525;28;20043;-69
2022/01/17 13:04:18;;;;;;;16.50;3.40;;;21.50;58.10;;;;;;4971933;28;20398;-69
2022/01/17 13:06:46;;;;;;;10.77;3.20;;;21.50;58.20;;;;;;4971397;28;20414;-69
2022/01/17 13:09:20;;;;;;;7.18;2.83;;;21.50;58.30;;;;;;4971068;28;20035;-68
2022/01/17 13:11:48;;;;;;;9.48;3.13;;;21.50;58.30;;;;;;4969893;28;20568;-69